sensor_id;sensor_type;location;lat;lon;timestamp;P1;durP1;ratioP1;P2;durP2;ratioP2
69026;SDS011;56080;47.594;19.116;2023-04-07T00:06:52;17.20;;;9.90;;
69026;SDS011;56080;47.594;19.116;2023-04-07T00:16:53;13.70;;;8.90;;
69026;SDS011;56080;47.594;19.116;2023-04-07T00:26:53;15.50;;;9.70;;
69026;SDS011;56080;47.594;19.116;2023-04-07T00:36:55;15.10;;;9.00;;
69026;SDS011;56080;47.594;19.116;2023-04-07T00:46:56;13.80;;;8.70;;
69026;SDS011;56080;47.594;19.116;2023-04-07T00:56:54;15.00;;;9.70;;
69026;SDS011;56080;47.594;19.116;2023-04-07T01:07:00;14.90;;;9.80;;
69026;SDS011;56080;47.594;19.116;2023-04-07T01:17:00;15.70;;;10.30;;
69026;SDS011;56080;47.594;19.116;2023-04-07T01:26:59;19.40;;;11.50;;
69026;SDS011;56080;47.594;19.116;2023-04-07T01:36:57;17.30;;;10.70;;
69026;SDS011;56080;47.594;19.116;2023-04-07T01:46:57;18.00;;;11.20;;
69026;SDS011;56080;47.594;19.116;2023-04-07T01:56:57;18.30;;;11.70;;
69026;SDS011;56080;47.594;19.116;2023-04-07T02:07:02;17.70;;;11.20;;
69026;SDS011;56080;47.594;19.116;2023-04-07T02:17:01;15.50;;;10.00;;
69026;SDS011;56080;47.594;19.116;2023-04-07T02:26:58;17.80;;;10.40;;
69026;SDS011;56080;47.594;19.116;2023-04-07T02:36:58;17.10;;;10.60;;
69026;SDS011;56080;47.594;19.116;2023-04-07T02:46:59;17.20;;;10.00;;
69026;SDS011;56080;47.594;19.116;2023-04-07T02:56:58;19.00;;;11.00;;
69026;SDS011;56080;47.594;19.116;2023-04-07T03:06:59;15.40;;;10.00;;
69026;SDS011;56080;47.594;19.116;2023-04-07T03:16:59;18.30;;;11.10;;
69026;SDS011;56080;47.594;19.116;2023-04-07T03:27:00;18.90;;;11.30;;
69026;SDS011;56080;47.594;19.116;2023-04-07T03:37:00;16.40;;;9.80;;
69026;SDS011;56080;47.594;19.116;2023-04-07T03:47:03;16.30;;;10.20;;
69026;SDS011;56080;47.594;19.116;2023-04-07T03:57:01;16.20;;;10.00;;
69026;SDS011;56080;47.594;19.116;2023-04-07T04:07:01;13.00;;;8.50;;
69026;SDS011;56080;47.594;19.116;2023-04-07T04:17:01;18.50;;;10.60;;
69026;SDS011;56080;47.594;19.116;2023-04-07T04:27:01;17.80;;;11.30;;
69026;SDS011;56080;47.594;19.116;2023-04-07T04:37:02;15.40;;;10.10;;
69026;SDS011;56080;47.594;19.116;2023-04-07T04:57:03;15.70;;;9.80;;
69026;SDS011;56080;47.594;19.116;2023-04-07T05:07:03;14.40;;;9.60;;
69026;SDS011;56080;47.594;19.116;2023-04-07T05:17:03;15.80;;;10.00;;
69026;SDS011;56080;47.594;19.116;2023-04-07T05:27:06;13.90;;;9.20;;
69026;SDS011;56080;47.594;19.116;2023-04-07T05:37:04;14.30;;;8.70;;
69026;SDS011;56080;47.594;19.116;2023-04-07T05:47:05;15.00;;;9.40;;
69026;SDS011;56080;47.594;19.116;2023-04-07T05:57:06;14.20;;;8.90;;
69026;SDS011;56080;47.594;19.116;2023-04-07T06:07:06;15.50;;;9.70;;
69026;SDS011;56080;47.594;19.116;2023-04-07T06:17:06;16.20;;;10.10;;
69026;SDS011;56080;47.594;19.116;2023-04-07T06:27:07;16.70;;;10.20;;
69026;SDS011;56080;47.594;19.116;2023-04-07T06:37:10;18.50;;;11.20;;
69026;SDS011;56080;47.594;19.116;2023-04-07T06:47:07;15.80;;;10.30;;
69026;SDS011;56080;47.594;19.116;2023-04-07T06:57:07;15.30;;;10.10;;
69026;SDS011;56080;47.594;19.116;2023-04-07T07:07:07;17.50;;;11.50;;
69026;SDS011;56080;47.594;19.116;2023-04-07T07:17:07;18.60;;;12.30;;
69026;SDS011;56080;47.594;19.116;2023-04-07T07:27:08;18.00;;;11.40;;
69026;SDS011;56080;47.594;19.116;2023-04-07T07:37:09;16.50;;;10.80;;
69026;SDS011;56080;47.594;19.116;2023-04-07T07:47:08;17.30;;;11.60;;
69026;SDS011;56080;47.594;19.116;2023-04-07T07:57:09;18.00;;;11.10;;
69026;SDS011;56080;47.594;19.116;2023-04-07T08:07:09;19.60;;;11.70;;
69026;SDS011;56080;47.594;19.116;2023-04-07T08:17:10;18.40;;;11.70;;
69026;SDS011;56080;47.594;19.116;2023-04-07T08:27:11;18.20;;;11.80;;
69026;SDS011;56080;47.594;19.116;2023-04-07T08:37:10;19.70;;;13.00;;
69026;SDS011;56080;47.594;19.116;2023-04-07T08:47:12;18.40;;;11.30;;
69026;SDS011;56080;47.594;19.116;2023-04-07T08:57:11;20.20;;;12.80;;
69026;SDS011;56080;47.594;19.116;2023-04-07T09:07:11;14.00;;;9.40;;
69026;SDS011;56080;47.594;19.116;2023-04-07T09:17:12;15.70;;;9.90;;
69026;SDS011;56080;47.594;19.116;2023-04-07T09:27:22;15.00;;;9.10;;
69026;SDS011;56080;47.594;19.116;2023-04-07T09:37:21;16.20;;;9.80;;
69026;SDS011;56080;47.594;19.116;2023-04-07T09:47:13;14.80;;;9.30;;
69026;SDS011;56080;47.594;19.116;2023-04-07T09:57:14;15.20;;;9.90;;
69026;SDS011;56080;47.594;19.116;2023-04-07T10:07:14;15.00;;;8.40;;
69026;SDS011;56080;47.594;19.116;2023-04-07T10:17:16;16.10;;;9.70;;
69026;SDS011;56080;47.594;19.116;2023-04-07T10:27:19;15.30;;;9.80;;
69026;SDS011;56080;47.594;19.116;2023-04-07T10:37:21;13.40;;;9.00;;
69026;SDS011;56080;47.594;19.116;2023-04-07T10:47:16;13.10;;;8.40;;
69026;SDS011;56080;47.594;19.116;2023-04-07T10:57:20;13.30;;;8.70;;
69026;SDS011;56080;47.594;19.116;2023-04-07T11:07:17;16.80;;;11.10;;
69026;SDS011;56080;47.594;19.116;2023-04-07T11:17:23;15.60;;;10.50;;
69026;SDS011;56080;47.594;19.116;2023-04-07T11:27:22;13.20;;;8.40;;
69026;SDS011;56080;47.594;19.116;2023-04-07T11:37:28;13.60;;;8.60;;
69026;SDS011;56080;47.594;19.116;2023-04-07T11:47:19;14.80;;;9.40;;
69026;SDS011;56080;47.594;19.116;2023-04-07T11:57:23;16.70;;;10.20;;
69026;SDS011;56080;47.594;19.116;2023-04-07T12:07:21;16.50;;;11.00;;
69026;SDS011;56080;47.594;19.116;2023-04-07T12:17:31;17.40;;;9.70;;
69026;SDS011;56080;47.594;19.116;2023-04-07T12:27:21;15.10;;;9.80;;
69026;SDS011;56080;47.594;19.116;2023-04-07T12:37:22;16.60;;;10.70;;
69026;SDS011;56080;47.594;19.116;2023-04-07T12:47:23;16.40;;;10.70;;
69026;SDS011;56080;47.594;19.116;2023-04-07T12:57:23;18.80;;;12.10;;
69026;SDS011;56080;47.594;19.116;2023-04-07T13:07:24;18.60;;;12.10;;
69026;SDS011;56080;47.594;19.116;2023-04-07T13:17:24;15.60;;;10.00;;
69026;SDS011;56080;47.594;19.116;2023-04-07T13:27:25;23.30;;;13.80;;
69026;SDS011;56080;47.594;19.116;2023-04-07T13:37:25;16.70;;;11.00;;
69026;SDS011;56080;47.594;19.116;2023-04-07T13:47:29;16.40;;;10.40;;
69026;SDS011;56080;47.594;19.116;2023-04-07T13:57:30;18.20;;;11.80;;
69026;SDS011;56080;47.594;19.116;2023-04-07T14:07:27;20.40;;;12.30;;
69026;SDS011;56080;47.594;19.116;2023-04-07T14:17:28;20.70;;;13.00;;
69026;SDS011;56080;47.594;19.116;2023-04-07T14:27:30;20.50;;;13.50;;
69026;SDS011;56080;47.594;19.116;2023-04-07T14:37:33;19.70;;;11.70;;
69026;SDS011;56080;47.594;19.116;2023-04-07T14:47:30;19.20;;;12.90;;
69026;SDS011;56080;47.594;19.116;2023-04-07T14:57:31;21.20;;;13.90;;
69026;SDS011;56080;47.594;19.116;2023-04-07T15:07:30;23.10;;;14.60;;
69026;SDS011;56080;47.594;19.116;2023-04-07T15:17:40;21.50;;;14.00;;
69026;SDS011;56080;47.594;19.116;2023-04-07T15:27:32;22.10;;;14.10;;
69026;SDS011;56080;47.594;19.116;2023-04-07T15:37:33;20.10;;;13.10;;
69026;SDS011;56080;47.594;19.116;2023-04-07T15:47:33;21.40;;;13.10;;
69026;SDS011;56080;47.594;19.116;2023-04-07T15:57:33;21.00;;;13.40;;
69026;SDS011;56080;47.594;19.116;2023-04-07T16:07:35;23.10;;;14.40;;
69026;SDS011;56080;47.594;19.116;2023-04-07T16:17:35;24.70;;;14.50;;
69026;SDS011;56080;47.594;19.116;2023-04-07T16:27:35;24.60;;;15.60;;
69026;SDS011;56080;47.594;19.116;2023-04-07T16:47:37;27.60;;;16.30;;
69026;SDS011;56080;47.594;19.116;2023-04-07T16:57:37;25.70;;;15.80;;
69026;SDS011;56080;47.594;19.116;2023-04-07T17:07:37;25.60;;;15.00;;
69026;SDS011;56080;47.594;19.116;2023-04-07T17:17:38;25.90;;;15.80;;
69026;SDS011;56080;47.594;19.116;2023-04-07T17:27:38;26.30;;;16.20;;
69026;SDS011;56080;47.594;19.116;2023-04-07T17:37:39;23.40;;;14.30;;
69026;SDS011;56080;47.594;19.116;2023-04-07T17:47:39;25.00;;;15.60;;
69026;SDS011;56080;47.594;19.116;2023-04-07T17:57:39;22.80;;;13.20;;
69026;SDS011;56080;47.594;19.116;2023-04-07T18:07:40;21.60;;;12.90;;
69026;SDS011;56080;47.594;19.116;2023-04-07T18:17:41;20.10;;;12.40;;
69026;SDS011;56080;47.594;19.116;2023-04-07T18:27:41;22.40;;;13.80;;
69026;SDS011;56080;47.594;19.116;2023-04-07T18:37:42;24.50;;;14.30;;
69026;SDS011;56080;47.594;19.116;2023-04-07T18:47:42;24.30;;;14.80;;
69026;SDS011;56080;47.594;19.116;2023-04-07T18:57:43;23.90;;;13.50;;
69026;SDS011;56080;47.594;19.116;2023-04-07T19:07:43;23.10;;;13.50;;
69026;SDS011;56080;47.594;19.116;2023-04-07T19:17:43;24.30;;;14.10;;
69026;SDS011;56080;47.594;19.116;2023-04-07T19:27:44;22.90;;;14.30;;
69026;SDS011;56080;47.594;19.116;2023-04-07T19:37:44;27.30;;;14.80;;
69026;SDS011;56080;47.594;19.116;2023-04-07T19:47:46;25.30;;;15.60;;
69026;SDS011;56080;47.594;19.116;2023-04-07T19:57:45;25.40;;;15.10;;
69026;SDS011;56080;47.594;19.116;2023-04-07T20:07:46;25.60;;;15.20;;
69026;SDS011;56080;47.594;19.116;2023-04-07T20:17:46;25.70;;;14.30;;
69026;SDS011;56080;47.594;19.116;2023-04-07T20:27:47;26.80;;;15.50;;
69026;SDS011;56080;47.594;19.116;2023-04-07T20:37:47;29.10;;;15.60;;
69026;SDS011;56080;47.594;19.116;2023-04-07T20:47:47;26.20;;;15.30;;
69026;SDS011;56080;47.594;19.116;2023-04-07T20:57:48;25.20;;;14.60;;
69026;SDS011;56080;47.594;19.116;2023-04-07T21:07:48;23.30;;;13.40;;
69026;SDS011;56080;47.594;19.116;2023-04-07T21:17:48;23.60;;;13.30;;
69026;SDS011;56080;47.594;19.116;2023-04-07T21:27:49;21.00;;;12.60;;
69026;SDS011;56080;47.594;19.116;2023-04-07T21:37:49;25.70;;;13.10;;
69026;SDS011;56080;47.594;19.116;2023-04-07T21:47:50;19.60;;;11.50;;
69026;SDS011;56080;47.594;19.116;2023-04-07T21:57:50;21.40;;;13.00;;
69026;SDS011;56080;47.594;19.116;2023-04-07T22:07:51;20.80;;;11.50;;
69026;SDS011;56080;47.594;19.116;2023-04-07T22:17:51;22.30;;;12.70;;
69026;SDS011;56080;47.594;19.116;2023-04-07T22:27:51;21.50;;;12.50;;
69026;SDS011;56080;47.594;19.116;2023-04-07T22:37:51;20.90;;;11.60;;
69026;SDS011;56080;47.594;19.116;2023-04-07T22:47:52;19.30;;;10.90;;
69026;SDS011;56080;47.594;19.116;2023-04-07T22:57:52;20.20;;;11.00;;
69026;SDS011;56080;47.594;19.116;2023-04-07T23:07:53;19.80;;;11.00;;
69026;SDS011;56080;47.594;19.116;2023-04-07T23:17:53;21.80;;;11.10;;
69026;SDS011;56080;47.594;19.116;2023-04-07T23:27:53;20.70;;;11.00;;
69026;SDS011;56080;47.594;19.116;2023-04-07T23:37:53;17.90;;;10.20;;
69026;SDS011;56080;47.594;19.116;2023-04-07T23:47:54;20.10;;;11.20;;
69026;SDS011;56080;47.594;19.116;2023-04-07T23:57:54;18.60;;;9.80;;
